Oneida, Nebraska
Current Conditions -  °F | °C
As of 11:55 AM on Thursday 18 Dec 2014 (Local Time) from KHDE Reporting Station
Overcast Overcast  
Wind Chill: 28°   Ceiling: 600
Heat Index: 28°   Visibility: 10mi
Dew Point: 25°   Wind: 3mph
Humidity: 90%   Direction: 230°SW
Pressure: 30.15"   Gusts: NA
Location:  40.3942°N, 99.1223°W
Report Text: KHDE 181755Z AUTO 23003KT 10SM OVC006 M02/M04 A3015 RMK AO2 T10251040 11025 21045
Loading
Personal Weather Stations






























Interactive Weather Map New forecast layout! Learn more

10-Day Weather Forecast

Advertisements
Track Severe Weather on mobile